sensor_id;sensor_type;location;lat;lon;timestamp;temperature;humidity
71237;DHT22;58984;51.960;5.582;2023-09-19T00:01:33;23.30;56.10
71237;DHT22;58984;51.960;5.582;2023-09-19T00:03:58;23.30;56.20
71237;DHT22;58984;51.960;5.582;2023-09-19T00:06:24;23.30;56.80
71237;DHT22;58984;51.960;5.582;2023-09-19T00:08:51;23.30;56.20
71237;DHT22;58984;51.960;5.582;2023-09-19T00:11:17;23.30;56.20
71237;DHT22;58984;51.960;5.582;2023-09-19T00:13:42;23.20;56.20
71237;DHT22;58984;51.960;5.582;2023-09-19T00:16:10;23.20;56.20
71237;DHT22;58984;51.960;5.582;2023-09-19T00:18:39;23.20;56.30
71237;DHT22;58984;51.960;5.582;2023-09-19T00:21:05;23.20;56.20
71237;DHT22;58984;51.960;5.582;2023-09-19T00:23:32;23.20;56.30
71237;DHT22;58984;51.960;5.582;2023-09-19T00:26:01;23.20;56.40
71237;DHT22;58984;51.960;5.582;2023-09-19T00:28:27;23.20;56.50
71237;DHT22;58984;51.960;5.582;2023-09-19T00:30:53;23.20;56.40
71237;DHT22;58984;51.960;5.582;2023-09-19T00:33:20;23.20;56.50
71237;DHT22;58984;51.960;5.582;2023-09-19T00:35:53;23.20;56.50
71237;DHT22;58984;51.960;5.582;2023-09-19T00:38:20;23.10;56.50
71237;DHT22;58984;51.960;5.582;2023-09-19T00:40:48;23.20;56.60
71237;DHT22;58984;51.960;5.582;2023-09-19T00:43:14;23.10;56.50
71237;DHT22;58984;51.960;5.582;2023-09-19T00:45:44;23.10;56.50
71237;DHT22;58984;51.960;5.582;2023-09-19T00:48:10;23.10;56.60
71237;DHT22;58984;51.960;5.582;2023-09-19T00:50:38;23.10;56.60
71237;DHT22;58984;51.960;5.582;2023-09-19T00:53:08;23.10;56.70
71237;DHT22;58984;51.960;5.582;2023-09-19T00:55:38;23.10;56.60
71237;DHT22;58984;51.960;5.582;2023-09-19T00:58:04;23.10;56.70
71237;DHT22;58984;51.960;5.582;2023-09-19T01:00:33;23.10;56.70
71237;DHT22;58984;51.960;5.582;2023-09-19T01:03:00;23.10;56.80
71237;DHT22;58984;51.960;5.582;2023-09-19T01:05:27;23.10;56.80
71237;DHT22;58984;51.960;5.582;2023-09-19T01:07:52;23.00;56.70
71237;DHT22;58984;51.960;5.582;2023-09-19T01:10:20;23.00;56.80
71237;DHT22;58984;51.960;5.582;2023-09-19T01:16:14;23.00;56.90
71237;DHT22;58984;51.960;5.582;2023-09-19T01:27:57;22.90;56.70
71237;DHT22;58984;51.960;5.582;2023-09-19T01:30:10;22.80;56.70
71237;DHT22;58984;51.960;5.582;2023-09-19T01:32:38;23.00;56.60
71237;DHT22;58984;51.960;5.582;2023-09-19T01:35:04;22.90;56.60
71237;DHT22;58984;51.960;5.582;2023-09-19T01:37:30;22.90;56.60
71237;DHT22;58984;51.960;5.582;2023-09-19T01:40:06;22.90;56.50
71237;DHT22;58984;51.960;5.582;2023-09-19T01:42:55;22.80;56.50
71237;DHT22;58984;51.960;5.582;2023-09-19T01:48:23;22.80;56.40
71237;DHT22;58984;51.960;5.582;2023-09-19T01:51:02;22.90;56.40
71237;DHT22;58984;51.960;5.582;2023-09-19T01:56:07;22.80;56.20
71237;DHT22;58984;51.960;5.582;2023-09-19T01:58:46;22.80;56.30
71237;DHT22;58984;51.960;5.582;2023-09-19T02:01:17;22.80;56.20
71237;DHT22;58984;51.960;5.582;2023-09-19T02:03:44;22.80;56.20
71237;DHT22;58984;51.960;5.582;2023-09-19T02:06:15;22.80;56.20
71237;DHT22;58984;51.960;5.582;2023-09-19T02:08:41;22.70;56.10
71237;DHT22;58984;51.960;5.582;2023-09-19T02:11:06;22.80;56.10
71237;DHT22;58984;51.960;5.582;2023-09-19T02:13:32;22.80;56.10
71237;DHT22;58984;51.960;5.582;2023-09-19T02:15:59;22.70;55.90
71237;DHT22;58984;51.960;5.582;2023-09-19T02:18:25;22.70;55.90
71237;DHT22;58984;51.960;5.582;2023-09-19T02:20:53;22.70;55.90
71237;DHT22;58984;51.960;5.582;2023-09-19T02:23:20;22.70;55.80
71237;DHT22;58984;51.960;5.582;2023-09-19T02:25:55;22.70;55.80
71237;DHT22;58984;51.960;5.582;2023-09-19T02:28:23;22.60;55.70
71237;DHT22;58984;51.960;5.582;2023-09-19T02:30:49;22.70;55.70
71237;DHT22;58984;51.960;5.582;2023-09-19T02:33:16;22.70;55.60
71237;DHT22;58984;51.960;5.582;2023-09-19T02:35:42;22.60;55.40
71237;DHT22;58984;51.960;5.582;2023-09-19T02:38:08;22.60;55.40
71237;DHT22;58984;51.960;5.582;2023-09-19T02:40:36;22.60;55.40
71237;DHT22;58984;51.960;5.582;2023-09-19T02:43:02;22.60;55.40
71237;DHT22;58984;51.960;5.582;2023-09-19T02:45:28;22.60;55.40
71237;DHT22;58984;51.960;5.582;2023-09-19T02:47:55;22.60;55.40
71237;DHT22;58984;51.960;5.582;2023-09-19T02:50:20;22.50;55.30
71237;DHT22;58984;51.960;5.582;2023-09-19T02:52:47;22.50;55.30
71237;DHT22;58984;51.960;5.582;2023-09-19T02:55:14;22.50;55.20
71237;DHT22;58984;51.960;5.582;2023-09-19T02:57:49;22.50;55.20
71237;DHT22;58984;51.960;5.582;2023-09-19T03:00:16;22.50;55.10
71237;DHT22;58984;51.960;5.582;2023-09-19T03:02:53;22.50;55.00
71237;DHT22;58984;51.960;5.582;2023-09-19T03:05:19;22.40;54.90
71237;DHT22;58984;51.960;5.582;2023-09-19T03:07:47;22.40;54.80
71237;DHT22;58984;51.960;5.582;2023-09-19T03:10:16;22.40;54.80
71237;DHT22;58984;51.960;5.582;2023-09-19T03:12:41;22.40;54.80
71237;DHT22;58984;51.960;5.582;2023-09-19T03:15:08;22.30;54.70
71237;DHT22;58984;51.960;5.582;2023-09-19T03:17:36;22.40;54.80
71237;DHT22;58984;51.960;5.582;2023-09-19T03:20:03;22.30;54.60
71237;DHT22;58984;51.960;5.582;2023-09-19T03:22:29;22.30;54.60
71237;DHT22;58984;51.960;5.582;2023-09-19T03:24:55;22.30;54.50
71237;DHT22;58984;51.960;5.582;2023-09-19T03:27:20;22.30;54.40
71237;DHT22;58984;51.960;5.582;2023-09-19T03:29:47;22.30;54.40
71237;DHT22;58984;51.960;5.582;2023-09-19T03:32:12;22.30;54.40
71237;DHT22;58984;51.960;5.582;2023-09-19T03:34:38;22.20;54.20
71237;DHT22;58984;51.960;5.582;2023-09-19T03:37:11;22.20;54.10
71237;DHT22;58984;51.960;5.582;2023-09-19T03:39:36;22.20;54.10
71237;DHT22;58984;51.960;5.582;2023-09-19T03:42:02;22.20;54.10
71237;DHT22;58984;51.960;5.582;2023-09-19T03:44:29;22.20;53.90
71237;DHT22;58984;51.960;5.582;2023-09-19T03:46:55;22.20;54.00
71237;DHT22;58984;51.960;5.582;2023-09-19T03:49:22;22.10;53.80
71237;DHT22;58984;51.960;5.582;2023-09-19T03:51:47;22.10;53.90
71237;DHT22;58984;51.960;5.582;2023-09-19T03:54:13;22.10;53.80
71237;DHT22;58984;51.960;5.582;2023-09-19T03:56:38;22.10;53.80
71237;DHT22;58984;51.960;5.582;2023-09-19T03:59:04;22.10;53.70
71237;DHT22;58984;51.960;5.582;2023-09-19T04:01:30;22.10;53.70
71237;DHT22;58984;51.960;5.582;2023-09-19T04:03:58;22.00;53.50
71237;DHT22;58984;51.960;5.582;2023-09-19T04:06:24;22.00;53.60
71237;DHT22;58984;51.960;5.582;2023-09-19T04:08:49;22.00;53.50
71237;DHT22;58984;51.960;5.582;2023-09-19T04:11:15;22.00;53.60
71237;DHT22;58984;51.960;5.582;2023-09-19T04:13:40;22.00;53.50
71237;DHT22;58984;51.960;5.582;2023-09-19T04:16:06;22.00;53.50
71237;DHT22;58984;51.960;5.582;2023-09-19T04:18:32;22.00;53.50
71237;DHT22;58984;51.960;5.582;2023-09-19T04:20:59;22.00;53.50
71237;DHT22;58984;51.960;5.582;2023-09-19T04:23:28;22.00;53.50
71237;DHT22;58984;51.960;5.582;2023-09-19T04:25:53;22.00;53.40
71237;DHT22;58984;51.960;5.582;2023-09-19T04:28:19;21.90;53.30
71237;DHT22;58984;51.960;5.582;2023-09-19T04:30:44;21.90;53.30
71237;DHT22;58984;51.960;5.582;2023-09-19T04:33:10;21.90;53.30
71237;DHT22;58984;51.960;5.582;2023-09-19T04:35:36;21.90;53.30
71237;DHT22;58984;51.960;5.582;2023-09-19T04:38:04;21.80;53.20
71237;DHT22;58984;51.960;5.582;2023-09-19T04:40:32;21.80;53.20
71237;DHT22;58984;51.960;5.582;2023-09-19T04:42:58;21.80;53.20
71237;DHT22;58984;51.960;5.582;2023-09-19T04:45:24;21.80;53.30
71237;DHT22;58984;51.960;5.582;2023-09-19T04:47:50;21.80;53.30
71237;DHT22;58984;51.960;5.582;2023-09-19T04:50:15;21.80;53.40
71237;DHT22;58984;51.960;5.582;2023-09-19T04:52:42;21.80;53.30
71237;DHT22;58984;51.960;5.582;2023-09-19T04:55:13;21.80;53.40
71237;DHT22;58984;51.960;5.582;2023-09-19T04:57:46;21.80;53.40
71237;DHT22;58984;51.960;5.582;2023-09-19T05:00:14;21.80;53.50
71237;DHT22;58984;51.960;5.582;2023-09-19T05:02:40;21.70;53.40
71237;DHT22;58984;51.960;5.582;2023-09-19T05:05:08;21.70;53.40
71237;DHT22;58984;51.960;5.582;2023-09-19T05:07:34;21.70;53.40
71237;DHT22;58984;51.960;5.582;2023-09-19T05:10:00;21.70;53.50
71237;DHT22;58984;51.960;5.582;2023-09-19T05:12:28;21.70;53.50
71237;DHT22;58984;51.960;5.582;2023-09-19T05:14:55;21.70;53.40
71237;DHT22;58984;51.960;5.582;2023-09-19T05:17:20;21.70;53.40
71237;DHT22;58984;51.960;5.582;2023-09-19T05:19:46;21.70;53.50
71237;DHT22;58984;51.960;5.582;2023-09-19T05:22:14;21.70;53.50
71237;DHT22;58984;51.960;5.582;2023-09-19T05:24:40;21.70;53.50
71237;DHT22;58984;51.960;5.582;2023-09-19T05:27:05;21.70;53.50
71237;DHT22;58984;51.960;5.582;2023-09-19T05:29:33;21.60;53.50
71237;DHT22;58984;51.960;5.582;2023-09-19T05:31:59;21.60;53.50
71237;DHT22;58984;51.960;5.582;2023-09-19T05:34:24;21.60;53.50
71237;DHT22;58984;51.960;5.582;2023-09-19T05:36:51;21.60;53.50
71237;DHT22;58984;51.960;5.582;2023-09-19T05:39:17;21.60;53.60
71237;DHT22;58984;51.960;5.582;2023-09-19T05:41:43;21.70;53.70
71237;DHT22;58984;51.960;5.582;2023-09-19T05:44:08;21.60;53.60
71237;DHT22;58984;51.960;5.582;2023-09-19T05:46:34;21.60;53.60
71237;DHT22;58984;51.960;5.582;2023-09-19T05:49:00;21.60;53.60
71237;DHT22;58984;51.960;5.582;2023-09-19T05:51:25;21.60;53.60
71237;DHT22;58984;51.960;5.582;2023-09-19T05:53:53;21.60;53.70
71237;DHT22;58984;51.960;5.582;2023-09-19T05:56:20;21.60;53.70
71237;DHT22;58984;51.960;5.582;2023-09-19T05:58:46;21.60;53.70
71237;DHT22;58984;51.960;5.582;2023-09-19T06:01:11;21.60;53.80
71237;DHT22;58984;51.960;5.582;2023-09-19T06:03:37;21.60;53.80
71237;DHT22;58984;51.960;5.582;2023-09-19T06:06:03;21.50;53.70
71237;DHT22;58984;51.960;5.582;2023-09-19T06:08:29;21.50;53.80
71237;DHT22;58984;51.960;5.582;2023-09-19T06:10:56;21.50;53.50
71237;DHT22;58984;51.960;5.582;2023-09-19T06:13:22;21.50;53.90
71237;DHT22;58984;51.960;5.582;2023-09-19T06:15:48;21.50;53.90
71237;DHT22;58984;51.960;5.582;2023-09-19T06:18:14;21.50;53.90
71237;DHT22;58984;51.960;5.582;2023-09-19T06:20:48;21.50;53.90
71237;DHT22;58984;51.960;5.582;2023-09-19T06:23:16;21.50;54.00
71237;DHT22;58984;51.960;5.582;2023-09-19T06:25:42;21.50;54.00
71237;DHT22;58984;51.960;5.582;2023-09-19T06:28:09;21.50;54.20
71237;DHT22;58984;51.960;5.582;2023-09-19T06:30:38;21.50;54.20
71237;DHT22;58984;51.960;5.582;2023-09-19T06:33:05;21.50;54.30
71237;DHT22;58984;51.960;5.582;2023-09-19T06:35:33;21.50;54.40
71237;DHT22;58984;51.960;5.582;2023-09-19T06:37:58;21.50;54.50
71237;DHT22;58984;51.960;5.582;2023-09-19T06:40:24;21.50;54.50
71237;DHT22;58984;51.960;5.582;2023-09-19T06:42:53;21.50;54.50
71237;DHT22;58984;51.960;5.582;2023-09-19T06:45:19;21.40;54.20
71237;DHT22;58984;51.960;5.582;2023-09-19T06:47:48;21.50;54.40
71237;DHT22;58984;51.960;5.582;2023-09-19T06:50:21;21.50;54.50
71237;DHT22;58984;51.960;5.582;2023-09-19T06:52:51;21.50;54.50
71237;DHT22;58984;51.960;5.582;2023-09-19T06:55:21;21.50;54.60
71237;DHT22;58984;51.960;5.582;2023-09-19T06:57:49;21.50;54.70
71237;DHT22;58984;51.960;5.582;2023-09-19T07:00:15;21.50;54.70
71237;DHT22;58984;51.960;5.582;2023-09-19T07:03:04;21.50;54.70
71237;DHT22;58984;51.960;5.582;2023-09-19T07:05:36;21.40;54.80
71237;DHT22;58984;51.960;5.582;2023-09-19T07:08:03;21.50;54.70
71237;DHT22;58984;51.960;5.582;2023-09-19T07:10:29;21.50;54.80
71237;DHT22;58984;51.960;5.582;2023-09-19T07:13:04;21.50;54.90
71237;DHT22;58984;51.960;5.582;2023-09-19T07:15:32;21.40;54.90
71237;DHT22;58984;51.960;5.582;2023-09-19T07:18:01;21.50;55.00
71237;DHT22;58984;51.960;5.582;2023-09-19T07:20:27;21.50;55.00
71237;DHT22;58984;51.960;5.582;2023-09-19T07:22:54;21.50;55.00
71237;DHT22;58984;51.960;5.582;2023-09-19T07:25:20;21.50;55.00
71237;DHT22;58984;51.960;5.582;2023-09-19T07:27:46;21.50;55.10
71237;DHT22;58984;51.960;5.582;2023-09-19T07:30:12;21.50;55.10
71237;DHT22;58984;51.960;5.582;2023-09-19T07:32:38;21.50;55.10
71237;DHT22;58984;51.960;5.582;2023-09-19T07:35:06;21.50;55.10
71237;DHT22;58984;51.960;5.582;2023-09-19T07:37:32;21.50;55.20
71237;DHT22;58984;51.960;5.582;2023-09-19T07:39:59;21.50;55.20
71237;DHT22;58984;51.960;5.582;2023-09-19T07:42:26;21.50;55.30
71237;DHT22;58984;51.960;5.582;2023-09-19T07:44:52;21.50;55.30
71237;DHT22;58984;51.960;5.582;2023-09-19T07:47:19;21.50;55.30
71237;DHT22;58984;51.960;5.582;2023-09-19T07:49:47;21.50;55.40
71237;DHT22;58984;51.960;5.582;2023-09-19T07:52:13;21.50;55.30
71237;DHT22;58984;51.960;5.582;2023-09-19T07:54:39;21.60;55.40
71237;DHT22;58984;51.960;5.582;2023-09-19T07:57:10;21.50;55.40
71237;DHT22;58984;51.960;5.582;2023-09-19T07:59:37;21.60;55.50
71237;DHT22;58984;51.960;5.582;2023-09-19T08:02:04;21.60;55.50
71237;DHT22;58984;51.960;5.582;2023-09-19T08:04:30;21.60;55.60
71237;DHT22;58984;51.960;5.582;2023-09-19T08:06:58;21.60;55.50
71237;DHT22;58984;51.960;5.582;2023-09-19T08:09:24;21.60;55.40
71237;DHT22;58984;51.960;5.582;2023-09-19T08:11:50;21.60;55.50
71237;DHT22;58984;51.960;5.582;2023-09-19T08:14:16;21.60;55.60
71237;DHT22;58984;51.960;5.582;2023-09-19T08:16:41;21.60;55.50
71237;DHT22;58984;51.960;5.582;2023-09-19T08:19:09;21.60;55.60
71237;DHT22;58984;51.960;5.582;2023-09-19T08:21:36;21.60;55.60
71237;DHT22;58984;51.960;5.582;2023-09-19T08:24:02;21.70;55.70
71237;DHT22;58984;51.960;5.582;2023-09-19T08:26:31;21.70;55.70
71237;DHT22;58984;51.960;5.582;2023-09-19T08:28:57;21.70;55.80
71237;DHT22;58984;51.960;5.582;2023-09-19T08:31:22;21.70;55.70
71237;DHT22;58984;51.960;5.582;2023-09-19T08:33:49;21.70;55.70
71237;DHT22;58984;51.960;5.582;2023-09-19T08:36:16;21.80;56.00
71237;DHT22;58984;51.960;5.582;2023-09-19T08:38:42;21.80;55.90
71237;DHT22;58984;51.960;5.582;2023-09-19T08:41:08;21.80;56.00
71237;DHT22;58984;51.960;5.582;2023-09-19T08:43:34;21.80;55.90
71237;DHT22;58984;51.960;5.582;2023-09-19T08:46:15;21.90;56.60
71237;DHT22;58984;51.960;5.582;2023-09-19T08:48:46;21.80;56.00
71237;DHT22;58984;51.960;5.582;2023-09-19T08:51:24;21.90;56.00
71237;DHT22;58984;51.960;5.582;2023-09-19T08:53:58;21.90;56.00
71237;DHT22;58984;51.960;5.582;2023-09-19T08:56:29;21.90;56.00
71237;DHT22;58984;51.960;5.582;2023-09-19T08:59:01;22.00;56.10
71237;DHT22;58984;51.960;5.582;2023-09-19T09:01:28;22.00;56.20
71237;DHT22;58984;51.960;5.582;2023-09-19T09:03:54;22.10;56.30
71237;DHT22;58984;51.960;5.582;2023-09-19T09:06:21;22.10;56.30
71237;DHT22;58984;51.960;5.582;2023-09-19T09:08:47;22.10;56.20
71237;DHT22;58984;51.960;5.582;2023-09-19T09:11:13;22.10;56.30
71237;DHT22;58984;51.960;5.582;2023-09-19T09:13:40;22.20;56.50
71237;DHT22;58984;51.960;5.582;2023-09-19T09:16:07;22.20;56.40
71237;DHT22;58984;51.960;5.582;2023-09-19T09:18:33;22.20;56.20
71237;DHT22;58984;51.960;5.582;2023-09-19T09:20:59;22.30;56.30
71237;DHT22;58984;51.960;5.582;2023-09-19T09:23:27;22.30;56.30
71237;DHT22;58984;51.960;5.582;2023-09-19T09:25:55;22.30;56.30
71237;DHT22;58984;51.960;5.582;2023-09-19T09:28:28;22.40;56.60
71237;DHT22;58984;51.960;5.582;2023-09-19T09:30:55;22.40;56.50
71237;DHT22;58984;51.960;5.582;2023-09-19T09:33:20;22.50;56.40
71237;DHT22;58984;51.960;5.582;2023-09-19T09:35:54;22.50;56.40
71237;DHT22;58984;51.960;5.582;2023-09-19T09:38:27;22.50;56.40
71237;DHT22;58984;51.960;5.582;2023-09-19T09:40:54;22.60;56.20
71237;DHT22;58984;51.960;5.582;2023-09-19T09:43:34;22.60;56.30
71237;DHT22;58984;51.960;5.582;2023-09-19T09:46:20;22.70;56.20
71237;DHT22;58984;51.960;5.582;2023-09-19T09:48:45;22.70;56.20
71237;DHT22;58984;51.960;5.582;2023-09-19T09:51:31;22.80;56.40
71237;DHT22;58984;51.960;5.582;2023-09-19T09:54:18;22.80;56.20
71237;DHT22;58984;51.960;5.582;2023-09-19T09:57:01;22.80;56.20
71237;DHT22;58984;51.960;5.582;2023-09-19T09:59:51;22.90;56.30
71237;DHT22;58984;51.960;5.582;2023-09-19T10:02:21;23.00;56.40
71237;DHT22;58984;51.960;5.582;2023-09-19T10:04:54;23.20;56.40
71237;DHT22;58984;51.960;5.582;2023-09-19T10:07:40;23.20;55.90
71237;DHT22;58984;51.960;5.582;2023-09-19T10:10:08;23.20;56.10
71237;DHT22;58984;51.960;5.582;2023-09-19T10:12:46;23.20;56.30
71237;DHT22;58984;51.960;5.582;2023-09-19T10:15:15;23.20;56.40
71237;DHT22;58984;51.960;5.582;2023-09-19T10:17:43;23.30;56.20
71237;DHT22;58984;51.960;5.582;2023-09-19T10:20:15;23.30;56.00
71237;DHT22;58984;51.960;5.582;2023-09-19T10:23:01;23.40;56.00
71237;DHT22;58984;51.960;5.582;2023-09-19T10:25:29;23.40;56.10
71237;DHT22;58984;51.960;5.582;2023-09-19T10:28:00;23.50;56.10
71237;DHT22;58984;51.960;5.582;2023-09-19T10:30:37;23.50;56.00
71237;DHT22;58984;51.960;5.582;2023-09-19T10:33:09;23.50;56.10
71237;DHT22;58984;51.960;5.582;2023-09-19T10:35:47;23.60;56.20
71237;DHT22;58984;51.960;5.582;2023-09-19T10:38:14;23.60;56.20
71237;DHT22;58984;51.960;5.582;2023-09-19T10:40:44;23.70;56.20
71237;DHT22;58984;51.960;5.582;2023-09-19T10:43:16;23.80;56.10
71237;DHT22;58984;51.960;5.582;2023-09-19T10:45:47;23.70;56.10
71237;DHT22;58984;51.960;5.582;2023-09-19T10:48:15;23.80;56.00
71237;DHT22;58984;51.960;5.582;2023-09-19T10:50:48;23.80;55.90
71237;DHT22;58984;51.960;5.582;2023-09-19T10:53:17;23.80;55.80
71237;DHT22;58984;51.960;5.582;2023-09-19T10:55:56;23.80;55.70
71237;DHT22;58984;51.960;5.582;2023-09-19T10:58:29;23.80;55.70
71237;DHT22;58984;51.960;5.582;2023-09-19T11:01:00;23.80;55.70
71237;DHT22;58984;51.960;5.582;2023-09-19T11:03:40;23.90;55.70
71237;DHT22;58984;51.960;5.582;2023-09-19T11:06:15;24.00;55.70
71237;DHT22;58984;51.960;5.582;2023-09-19T11:09:01;24.00;55.60
71237;DHT22;58984;51.960;5.582;2023-09-19T11:11:48;23.90;54.10
71237;DHT22;58984;51.960;5.582;2023-09-19T11:30:52;24.20;55.10
71237;DHT22;58984;51.960;5.582;2023-09-19T11:36:12;24.30;54.90
71237;DHT22;58984;51.960;5.582;2023-09-19T11:44:37;24.30;54.90
71237;DHT22;58984;51.960;5.582;2023-09-19T11:46:54;24.30;55.00
71237;DHT22;58984;51.960;5.582;2023-09-19T11:49:30;24.40;54.90
71237;DHT22;58984;51.960;5.582;2023-09-19T11:51:58;24.40;54.90
71237;DHT22;58984;51.960;5.582;2023-09-19T11:54:30;24.40;54.80
71237;DHT22;58984;51.960;5.582;2023-09-19T11:57:00;24.50;54.90
71237;DHT22;58984;51.960;5.582;2023-09-19T11:59:30;24.50;54.90
71237;DHT22;58984;51.960;5.582;2023-09-19T12:02:05;24.50;54.80
71237;DHT22;58984;51.960;5.582;2023-09-19T12:04:34;24.50;54.80
71237;DHT22;58984;51.960;5.582;2023-09-19T12:07:09;24.60;54.70
71237;DHT22;58984;51.960;5.582;2023-09-19T12:10:03;24.70;54.80
71237;DHT22;58984;51.960;5.582;2023-09-19T12:12:29;24.70;54.20
71237;DHT22;58984;51.960;5.582;2023-09-19T12:14:56;24.70;54.40
71237;DHT22;58984;51.960;5.582;2023-09-19T12:17:41;24.60;54.50
71237;DHT22;58984;51.960;5.582;2023-09-19T12:20:08;24.60;54.70
71237;DHT22;58984;51.960;5.582;2023-09-19T12:22:42;24.60;54.40
71237;DHT22;58984;51.960;5.582;2023-09-19T12:25:09;24.60;54.30
71237;DHT22;58984;51.960;5.582;2023-09-19T12:27:46;24.60;54.20
71237;DHT22;58984;51.960;5.582;2023-09-19T12:30:13;24.60;54.20
71237;DHT22;58984;51.960;5.582;2023-09-19T12:32:43;24.60;54.10
71237;DHT22;58984;51.960;5.582;2023-09-19T12:35:10;24.70;53.90
71237;DHT22;58984;51.960;5.582;2023-09-19T12:37:45;24.70;53.90
71237;DHT22;58984;51.960;5.582;2023-09-19T12:40:21;24.60;53.90
71237;DHT22;58984;51.960;5.582;2023-09-19T12:42:54;24.60;53.80
71237;DHT22;58984;51.960;5.582;2023-09-19T12:45:42;24.60;53.90
71237;DHT22;58984;51.960;5.582;2023-09-19T12:48:25;24.60;53.90
71237;DHT22;58984;51.960;5.582;2023-09-19T12:53:47;24.80;53.70
71237;DHT22;58984;51.960;5.582;2023-09-19T12:56:48;24.60;53.10
71237;DHT22;58984;51.960;5.582;2023-09-19T12:59:38;24.60;53.20
71237;DHT22;58984;51.960;5.582;2023-09-19T13:05:09;24.50;53.70
71237;DHT22;58984;51.960;5.582;2023-09-19T13:07:47;24.40;53.60
71237;DHT22;58984;51.960;5.582;2023-09-19T13:10:32;24.40;53.70
71237;DHT22;58984;51.960;5.582;2023-09-19T13:13:28;24.30;53.70
71237;DHT22;58984;51.960;5.582;2023-09-19T13:15:55;24.50;53.90
71237;DHT22;58984;51.960;5.582;2023-09-19T13:21:43;24.40;53.40
71237;DHT22;58984;51.960;5.582;2023-09-19T13:24:26;24.20;53.70
71237;DHT22;58984;51.960;5.582;2023-09-19T13:26:57;24.20;53.60
71237;DHT22;58984;51.960;5.582;2023-09-19T13:29:25;24.20;53.60
71237;DHT22;58984;51.960;5.582;2023-09-19T13:31:52;24.20;53.70
71237;DHT22;58984;51.960;5.582;2023-09-19T13:34:19;24.20;53.80
71237;DHT22;58984;51.960;5.582;2023-09-19T13:36:45;24.20;53.90
71237;DHT22;58984;51.960;5.582;2023-09-19T13:39:17;24.20;54.10
71237;DHT22;58984;51.960;5.582;2023-09-19T13:41:47;24.20;54.00
71237;DHT22;58984;51.960;5.582;2023-09-19T13:44:13;24.10;54.00
71237;DHT22;58984;51.960;5.582;2023-09-19T13:46:41;24.10;54.00
71237;DHT22;58984;51.960;5.582;2023-09-19T13:49:11;24.10;53.90
71237;DHT22;58984;51.960;5.582;2023-09-19T13:51:37;24.10;53.70
71237;DHT22;58984;51.960;5.582;2023-09-19T13:54:02;24.10;53.90
71237;DHT22;58984;51.960;5.582;2023-09-19T13:56:28;24.10;53.90
71237;DHT22;58984;51.960;5.582;2023-09-19T13:58:55;24.10;54.00
71237;DHT22;58984;51.960;5.582;2023-09-19T14:01:21;24.10;53.90
71237;DHT22;58984;51.960;5.582;2023-09-19T14:03:46;24.10;54.00
71237;DHT22;58984;51.960;5.582;2023-09-19T14:06:15;24.10;54.10
71237;DHT22;58984;51.960;5.582;2023-09-19T14:08:41;24.10;54.10
71237;DHT22;58984;51.960;5.582;2023-09-19T14:11:08;24.10;54.10
71237;DHT22;58984;51.960;5.582;2023-09-19T14:13:34;24.10;53.90
71237;DHT22;58984;51.960;5.582;2023-09-19T14:16:04;24.10;53.90
71237;DHT22;58984;51.960;5.582;2023-09-19T14:18:30;24.00;53.90
71237;DHT22;58984;51.960;5.582;2023-09-19T14:20:56;24.10;54.00
71237;DHT22;58984;51.960;5.582;2023-09-19T14:23:22;24.00;53.90
71237;DHT22;58984;51.960;5.582;2023-09-19T14:25:50;24.10;54.00
71237;DHT22;58984;51.960;5.582;2023-09-19T14:28:15;24.10;54.10
71237;DHT22;58984;51.960;5.582;2023-09-19T14:30:41;24.10;54.00
71237;DHT22;58984;51.960;5.582;2023-09-19T14:33:07;24.00;53.90
71237;DHT22;58984;51.960;5.582;2023-09-19T14:35:33;24.10;54.10
71237;DHT22;58984;51.960;5.582;2023-09-19T14:37:58;24.10;53.60
71237;DHT22;58984;51.960;5.582;2023-09-19T14:40:24;24.00;53.90
71237;DHT22;58984;51.960;5.582;2023-09-19T14:42:50;24.10;54.10
71237;DHT22;58984;51.960;5.582;2023-09-19T14:45:16;24.10;54.00
71237;DHT22;58984;51.960;5.582;2023-09-19T14:47:45;24.00;54.00
71237;DHT22;58984;51.960;5.582;2023-09-19T14:50:11;24.00;54.00
71237;DHT22;58984;51.960;5.582;2023-09-19T14:52:37;24.00;53.90
71237;DHT22;58984;51.960;5.582;2023-09-19T14:55:05;24.00;53.90
71237;DHT22;58984;51.960;5.582;2023-09-19T14:57:31;24.00;54.00
71237;DHT22;58984;51.960;5.582;2023-09-19T14:59:57;24.00;54.00
71237;DHT22;58984;51.960;5.582;2023-09-19T15:02:24;24.00;53.90
71237;DHT22;58984;51.960;5.582;2023-09-19T15:04:52;24.00;53.90
71237;DHT22;58984;51.960;5.582;2023-09-19T15:07:17;24.00;53.90
71237;DHT22;58984;51.960;5.582;2023-09-19T15:09:43;24.00;53.90
71237;DHT22;58984;51.960;5.582;2023-09-19T15:12:09;24.00;53.90
71237;DHT22;58984;51.960;5.582;2023-09-19T15:14:36;24.00;53.80
71237;DHT22;58984;51.960;5.582;2023-09-19T15:17:04;24.00;53.90
71237;DHT22;58984;51.960;5.582;2023-09-19T15:19:30;24.00;53.80
71237;DHT22;58984;51.960;5.582;2023-09-19T15:21:59;24.00;53.90
71237;DHT22;58984;51.960;5.582;2023-09-19T15:24:25;23.90;53.80
71237;DHT22;58984;51.960;5.582;2023-09-19T15:26:52;23.90;53.60
71237;DHT22;58984;51.960;5.582;2023-09-19T15:29:20;24.00;53.90
71237;DHT22;58984;51.960;5.582;2023-09-19T15:31:59;23.90;53.90
71237;DHT22;58984;51.960;5.582;2023-09-19T15:34:28;23.80;53.90
71237;DHT22;58984;51.960;5.582;2023-09-19T15:36:54;24.00;53.90
71237;DHT22;58984;51.960;5.582;2023-09-19T15:39:25;23.90;53.60
71237;DHT22;58984;51.960;5.582;2023-09-19T15:41:53;23.90;53.70
71237;DHT22;58984;51.960;5.582;2023-09-19T15:44:22;23.90;53.80
71237;DHT22;58984;51.960;5.582;2023-09-19T15:46:52;23.90;53.90
71237;DHT22;58984;51.960;5.582;2023-09-19T15:49:25;23.90;53.90
71237;DHT22;58984;51.960;5.582;2023-09-19T15:51:50;23.90;53.90
71237;DHT22;58984;51.960;5.582;2023-09-19T15:54:16;23.90;53.90
71237;DHT22;58984;51.960;5.582;2023-09-19T15:56:46;23.90;53.90
71237;DHT22;58984;51.960;5.582;2023-09-19T15:59:16;23.80;53.90
71237;DHT22;58984;51.960;5.582;2023-09-19T16:01:43;23.80;53.90
71237;DHT22;58984;51.960;5.582;2023-09-19T16:04:10;23.80;53.90
71237;DHT22;58984;51.960;5.582;2023-09-19T16:06:36;23.80;54.00
71237;DHT22;58984;51.960;5.582;2023-09-19T16:09:03;23.80;54.00
71237;DHT22;58984;51.960;5.582;2023-09-19T16:11:32;23.80;54.00
71237;DHT22;58984;51.960;5.582;2023-09-19T16:13:58;23.80;54.10
71237;DHT22;58984;51.960;5.582;2023-09-19T16:16:26;23.80;54.00
71237;DHT22;58984;51.960;5.582;2023-09-19T16:19:04;23.80;54.10
71237;DHT22;58984;51.960;5.582;2023-09-19T16:21:33;23.80;54.10
71237;DHT22;58984;51.960;5.582;2023-09-19T16:24:00;23.80;54.20
71237;DHT22;58984;51.960;5.582;2023-09-19T16:26:27;23.80;54.20
71237;DHT22;58984;51.960;5.582;2023-09-19T16:28:55;23.80;54.30
71237;DHT22;58984;51.960;5.582;2023-09-19T16:31:29;23.80;54.40
71237;DHT22;58984;51.960;5.582;2023-09-19T16:33:55;23.80;54.20